createdAt,value
2022-07-27T00:01:00.982Z,89.20
2022-07-27T00:03:27.711Z,90.67
2022-07-27T00:05:54.479Z,89.87
2022-07-27T00:08:22.318Z,90.00
2022-07-27T00:10:49.003Z,90.17
2022-07-27T00:13:15.843Z,90.90
2022-07-27T00:15:42.738Z,89.40
2022-07-27T00:18:09.735Z,94.40
2022-07-27T00:20:36.762Z,90.83
2022-07-27T00:23:03.652Z,89.93
2022-07-27T00:25:30.318Z,89.67
2022-07-27T00:27:57.151Z,89.60
2022-07-27T00:30:24.887Z,89.17
2022-07-27T00:32:51.996Z,90.83
2022-07-27T00:35:19.584Z,89.23
2022-07-27T00:37:46.448Z,90.87
2022-07-27T00:40:13.245Z,90.97
2022-07-27T00:42:40.157Z,90.80
2022-07-27T00:45:07.494Z,89.50
2022-07-27T00:47:34.241Z,91.23
2022-07-27T00:50:01.016Z,89.37
2022-07-27T00:52:29.749Z,89.60
2022-07-27T00:54:56.639Z,90.63
2022-07-27T00:57:23.708Z,90.30
2022-07-27T00:59:50.467Z,89.50
2022-07-27T01:02:19.337Z,89.87
2022-07-27T01:04:47.257Z,90.17
2022-07-27T01:07:14.673Z,91.20
2022-07-27T01:09:57.723Z,90.10
2022-07-27T01:12:30.594Z,89.40
2022-07-27T01:14:58.485Z,89.97
2022-07-27T01:17:26.809Z,90.47
2022-07-27T01:19:53.890Z,89.77
2022-07-27T01:22:20.635Z,93.97
2022-07-27T01:24:48.476Z,89.90
2022-07-27T01:27:15.207Z,90.30
2022-07-27T01:29:41.938Z,90.10
2022-07-27T01:32:08.795Z,91.10
2022-07-27T01:34:35.782Z,89.07
2022-07-27T01:37:03.034Z,89.80
2022-07-27T01:39:30.567Z,89.90
2022-07-27T01:41:57.861Z,89.60
2022-07-27T01:44:24.555Z,91.23
2022-07-27T01:46:51.577Z,90.47
2022-07-27T01:49:18.686Z,91.07
2022-07-27T01:51:45.494Z,90.10
2022-07-27T01:54:12.381Z,90.50
2022-07-27T01:56:39.079Z,89.57
2022-07-27T01:59:05.808Z,91.27
2022-07-27T02:01:32.561Z,89.93
2022-07-27T02:03:59.262Z,90.43
2022-07-27T02:06:26.078Z,89.37
2022-07-27T02:08:52.772Z,93.43
2022-07-27T02:11:37.973Z,91.10
2022-07-27T02:14:04.654Z,89.17
2022-07-27T02:16:31.439Z,90.10
2022-07-27T02:18:58.342Z,89.33
2022-07-27T02:21:25.168Z,88.93
2022-07-27T02:23:51.912Z,89.30
2022-07-27T02:26:18.823Z,88.97
2022-07-27T02:28:45.477Z,90.63
2022-07-27T02:31:12.171Z,90.27
2022-07-27T02:33:38.855Z,89.07
2022-07-27T02:36:05.779Z,90.10
2022-07-27T02:38:32.448Z,89.27
2022-07-27T02:40:59.185Z,89.80
2022-07-27T02:43:25.921Z,89.40
2022-07-27T02:45:52.731Z,88.60
2022-07-27T02:48:19.464Z,88.80
2022-07-27T02:50:46.347Z,88.90
2022-07-27T02:53:13.093Z,89.33
2022-07-27T02:55:40.082Z,90.17
2022-07-27T02:58:07.030Z,88.67
2022-07-27T03:00:34.160Z,90.57
2022-07-27T03:03:01.266Z,90.40
2022-07-27T03:05:27.938Z,90.37
2022-07-27T03:07:54.612Z,88.77
2022-07-27T03:10:21.293Z,88.90
2022-07-27T03:12:47.974Z,88.57
2022-07-27T03:15:14.657Z,91.07
2022-07-27T03:17:42.548Z,90.23
2022-07-27T03:20:12.748Z,91.67
2022-07-27T03:22:39.504Z,89.60
2022-07-27T03:25:06.921Z,89.80
2022-07-27T03:27:33.611Z,90.07
2022-07-27T03:30:00.396Z,89.23
2022-07-27T03:32:27.075Z,89.50
2022-07-27T03:34:53.747Z,89.77
2022-07-27T03:37:20.914Z,92.57
2022-07-27T03:39:47.626Z,89.73
2022-07-27T03:42:14.432Z,90.70
2022-07-27T03:44:41.173Z,90.00
2022-07-27T03:47:07.866Z,89.47
2022-07-27T03:49:34.653Z,90.93
2022-07-27T03:52:01.525Z,91.33
2022-07-27T03:54:28.601Z,90.93
2022-07-27T03:56:55.383Z,92.00
2022-07-27T03:59:22.170Z,93.93
2022-07-27T04:01:48.851Z,91.90
2022-07-27T04:04:15.555Z,91.18
2022-07-27T04:06:42.282Z,89.87
2022-07-27T04:09:09.213Z,90.43
2022-07-27T04:11:37.830Z,94.37
2022-07-27T04:14:17.325Z,92.13
2022-07-27T04:16:44.112Z,93.73
2022-07-27T04:19:11.185Z,92.77
2022-07-27T04:21:38.172Z,90.87
2022-07-27T04:24:05.538Z,89.90
2022-07-27T04:26:32.363Z,90.32
2022-07-27T04:28:59.042Z,90.10
2022-07-27T04:31:25.724Z,89.97
2022-07-27T04:33:52.388Z,92.30
2022-07-27T04:36:19.172Z,92.30
2022-07-27T04:38:45.877Z,91.10
2022-07-27T04:41:12.909Z,91.00
2022-07-27T04:43:39.864Z,89.50
2022-07-27T04:46:10.507Z,96.10
2022-07-27T04:48:40.080Z,89.90
2022-07-27T04:51:08.186Z,100.90
2022-07-27T04:53:36.959Z,90.77
2022-07-27T04:56:20.766Z,89.23
2022-07-27T04:58:47.894Z,89.73
2022-07-27T05:01:14.735Z,91.07
2022-07-27T05:03:43.039Z,92.77
2022-07-27T05:06:09.795Z,90.43
2022-07-27T05:08:36.544Z,90.80
2022-07-27T05:11:03.251Z,91.07
2022-07-27T05:13:29.940Z,90.27
2022-07-27T05:15:56.643Z,91.90
2022-07-27T05:18:24.068Z,89.27
2022-07-27T05:20:50.788Z,91.67
2022-07-27T05:23:17.856Z,92.00
2022-07-27T05:25:44.692Z,94.80
2022-07-27T05:28:12.383Z,88.80
2022-07-27T05:30:39.158Z,92.40
2022-07-27T05:33:05.853Z,90.97
2022-07-27T05:35:32.560Z,91.70
2022-07-27T05:37:59.569Z,89.70
2022-07-27T05:40:26.528Z,92.23
2022-07-27T05:42:53.323Z,89.67
2022-07-27T05:45:20.391Z,92.23
2022-07-27T05:47:47.107Z,88.70
2022-07-27T05:50:14.678Z,92.07
2022-07-27T05:52:41.956Z,91.87
2022-07-27T05:55:09.204Z,89.33
2022-07-27T05:57:36.531Z,92.90
2022-07-27T06:00:05.003Z,93.00
2022-07-27T06:02:31.822Z,90.20
2022-07-27T06:04:58.718Z,90.60
2022-07-27T06:07:43.887Z,90.17
2022-07-27T06:10:16.570Z,96.67
2022-07-27T06:12:45.317Z,92.47
2022-07-27T06:15:13.695Z,89.73
2022-07-27T06:17:41.099Z,94.47
2022-07-27T06:20:08.834Z,88.90
2022-07-27T06:23:09.010Z,90.87
2022-07-27T06:25:36.140Z,92.90
2022-07-27T06:28:04.765Z,91.47
2022-07-27T06:30:31.557Z,90.43
2022-07-27T06:32:59.072Z,89.60
2022-07-27T06:35:26.418Z,90.63
2022-07-27T06:37:54.184Z,90.13
2022-07-27T06:40:21.168Z,90.60
2022-07-27T06:42:48.502Z,86.97
2022-07-27T06:45:15.656Z,89.70
2022-07-27T06:47:49.223Z,87.70
2022-07-27T06:50:18.465Z,91.03
2022-07-27T06:52:45.242Z,85.90
2022-07-27T06:55:12.348Z,87.27
2022-07-27T06:57:39.204Z,83.63
2022-07-27T07:00:07.291Z,84.13
2022-07-27T07:02:34.048Z,83.70
2022-07-27T07:05:00.703Z,82.70
2022-07-27T07:07:27.443Z,80.23
2022-07-27T07:09:54.100Z,85.00
2022-07-27T07:12:20.836Z,80.60
2022-07-27T07:14:47.520Z,83.27
2022-07-27T07:17:14.174Z,80.07
2022-07-27T07:19:40.928Z,78.67
2022-07-27T07:22:07.605Z,79.57
2022-07-27T07:24:34.360Z,79.77
2022-07-27T07:27:01.024Z,80.13
2022-07-27T07:29:27.811Z,79.80
2022-07-27T07:31:54.561Z,82.47
2022-07-27T07:34:21.270Z,80.07
2022-07-27T07:36:47.954Z,82.57
2022-07-27T07:39:15.047Z,80.50
2022-07-27T07:41:42.012Z,82.60
2022-07-27T07:44:10.036Z,85.77
2022-07-27T07:46:37.044Z,84.20
2022-07-27T07:49:05.453Z,82.17
2022-07-27T07:51:32.318Z,82.10
2022-07-27T07:53:59.358Z,85.50
2022-07-27T07:56:26.106Z,85.50
2022-07-27T07:58:52.927Z,81.87
2022-07-27T08:01:19.601Z,82.77
2022-07-27T08:03:50.853Z,82.43
2022-07-27T08:06:18.732Z,83.50
2022-07-27T08:08:45.400Z,84.30
2022-07-27T08:11:12.087Z,84.17
2022-07-27T08:13:38.763Z,85.00
2022-07-27T08:16:05.923Z,82.23
2022-07-27T08:18:32.876Z,84.03
2022-07-27T08:20:59.663Z,87.23
2022-07-27T08:23:29.161Z,82.80
2022-07-27T08:25:55.829Z,84.17
2022-07-27T08:28:22.495Z,86.17
2022-07-27T08:30:49.520Z,83.50
2022-07-27T08:33:16.985Z,88.70
2022-07-27T08:35:45.662Z,86.13
2022-07-27T08:38:12.527Z,86.43
2022-07-27T08:40:43.420Z,89.87
2022-07-27T08:43:18.882Z,84.50
2022-07-27T08:45:55.341Z,89.57
2022-07-27T08:48:24.631Z,89.27
2022-07-27T08:50:51.502Z,85.77
2022-07-27T08:53:18.762Z,85.47
2022-07-27T08:55:47.303Z,85.20
2022-07-27T08:58:15.273Z,84.87
2022-07-27T09:00:44.527Z,89.77
2022-07-27T09:03:18.551Z,90.40
2022-07-27T09:05:47.750Z,88.17
2022-07-27T09:08:17.903Z,84.70
2022-07-27T09:10:44.831Z,85.50
2022-07-27T09:13:23.545Z,84.20
2022-07-27T09:18:40.427Z,89.43
2022-07-27T09:21:11.357Z,86.50
2022-07-27T09:23:54.287Z,83.70
2022-07-27T09:26:34.762Z,81.03
2022-07-27T09:29:03.732Z,81.40
2022-07-27T09:31:30.971Z,80.77
2022-07-27T09:34:02.829Z,82.97
2022-07-27T09:36:31.122Z,82.50
2022-07-27T09:39:06.838Z,82.97
2022-07-27T09:41:48.661Z,82.00
2022-07-27T09:44:32.952Z,79.80
2022-07-27T09:47:02.003Z,79.47
2022-07-27T09:49:34.150Z,83.67
2022-07-27T09:52:03.330Z,80.17
2022-07-27T09:54:45.174Z,79.80
2022-07-27T09:57:11.977Z,82.47
2022-07-27T09:59:38.719Z,79.77
2022-07-27T10:02:05.687Z,83.70
2022-07-27T10:04:35.629Z,79.50
2022-07-27T10:07:04.699Z,80.73
2022-07-27T10:09:35.011Z,81.70
2022-07-27T10:12:04.463Z,82.40
2022-07-27T10:14:32.542Z,82.63
2022-07-27T10:16:59.654Z,84.80
2022-07-27T10:19:45.800Z,86.57
2022-07-27T10:22:13.991Z,81.07
2022-07-27T10:24:40.668Z,81.80
2022-07-27T10:27:27.911Z,88.40
2022-07-27T10:29:55.250Z,83.17
2022-07-27T10:32:23.847Z,81.90
2022-07-27T10:34:50.551Z,84.67
2022-07-27T10:37:28.592Z,80.30
2022-07-27T10:40:15.540Z,83.77
2022-07-27T10:42:43.901Z,81.07
2022-07-27T10:45:15.182Z,81.30
2022-07-27T10:47:47.051Z,82.90
2022-07-27T10:50:16.927Z,81.53
2022-07-27T10:52:51.128Z,82.17
2022-07-27T10:55:30.237Z,80.30
2022-07-27T10:58:15.074Z,80.37
2022-07-27T11:00:54.691Z,80.27
2022-07-27T11:03:42.582Z,90.67
2022-07-27T11:06:31.869Z,81.70
2022-07-27T11:11:49.696Z,81.67
2022-07-27T11:14:18.927Z,80.83
2022-07-27T11:16:55.879Z,82.40
2022-07-27T11:19:24.042Z,81.57
2022-07-27T11:21:52.448Z,85.93
2022-07-27T11:24:19.271Z,81.27
2022-07-27T11:26:52.708Z,81.67
2022-07-27T11:29:22.343Z,84.90
2022-07-27T11:31:56.471Z,85.17
2022-07-27T11:34:33.592Z,83.10
2022-07-27T11:37:05.543Z,82.67
2022-07-27T11:39:59.981Z,80.93
2022-07-27T11:42:23.807Z,80.80
2022-07-27T11:44:52.839Z,82.70
2022-07-27T11:47:23.978Z,82.80
2022-07-27T11:49:50.929Z,83.43
2022-07-27T11:52:18.716Z,83.80
2022-07-27T11:54:51.699Z,82.00
2022-07-27T11:57:22.535Z,82.57
2022-07-27T11:59:49.192Z,83.00
2022-07-27T12:02:20.277Z,86.03
2022-07-27T12:04:49.757Z,82.37
2022-07-27T12:07:29.798Z,81.27
2022-07-27T12:10:02.496Z,84.13
2022-07-27T12:12:32.951Z,82.83
2022-07-27T12:15:44.243Z,82.10
2022-07-27T12:18:01.167Z,83.87
2022-07-27T12:20:35.687Z,81.10
2022-07-27T12:23:07.028Z,83.13
2022-07-27T12:25:35.023Z,87.07
2022-07-27T12:28:04.480Z,82.57
2022-07-27T12:30:38.780Z,81.07
2022-07-27T12:33:07.699Z,83.60
2022-07-27T12:35:46.973Z,83.60
2022-07-27T12:38:14.323Z,83.50
2022-07-27T12:40:50.033Z,83.50
2022-07-27T12:43:19.129Z,80.03
2022-07-27T12:45:47.378Z,85.30
2022-07-27T12:48:18.077Z,80.20
2022-07-27T12:51:05.892Z,82.50
2022-07-27T12:53:33.615Z,80.97
2022-07-27T12:56:03.781Z,82.70
2022-07-27T12:58:30.935Z,82.77
2022-07-27T13:00:57.789Z,81.70
2022-07-27T13:03:24.562Z,82.87
2022-07-27T13:05:51.330Z,82.20
2022-07-27T13:08:18.015Z,84.13
2022-07-27T13:10:44.889Z,81.40
2022-07-27T13:13:12.027Z,80.77
2022-07-27T13:15:38.856Z,79.80
2022-07-27T13:18:05.567Z,83.53
2022-07-27T13:20:32.713Z,81.40
2022-07-27T13:22:59.394Z,79.70
2022-07-27T13:25:26.128Z,79.43
2022-07-27T13:27:52.889Z,80.37
2022-07-27T13:30:19.824Z,80.10
2022-07-27T13:32:47.893Z,80.10
2022-07-27T13:35:16.583Z,80.20
2022-07-27T13:37:43.591Z,81.40
2022-07-27T13:40:10.595Z,80.53
2022-07-27T13:42:37.574Z,80.23
2022-07-27T13:45:11.254Z,77.93
2022-07-27T13:47:39.945Z,79.17
2022-07-27T13:50:16.781Z,79.27
2022-07-27T13:52:44.922Z,80.83
2022-07-27T13:55:14.054Z,79.67
2022-07-27T13:57:40.751Z,82.77
2022-07-27T14:00:08.058Z,80.67
2022-07-27T14:02:34.809Z,85.30
2022-07-27T14:05:02.457Z,80.37
2022-07-27T14:07:31.086Z,81.37
2022-07-27T14:10:16.600Z,82.87
2022-07-27T14:12:43.322Z,82.03
2022-07-27T14:15:10.515Z,85.17
2022-07-27T14:17:37.481Z,79.00
2022-07-27T14:20:06.116Z,82.80
2022-07-27T14:22:33.008Z,79.50
2022-07-27T14:24:59.815Z,80.70
2022-07-27T14:27:26.502Z,80.10
2022-07-27T14:30:04.294Z,81.73
2022-07-27T14:32:31.121Z,82.40
2022-07-27T14:34:58.156Z,82.67
2022-07-27T14:37:24.874Z,79.10
2022-07-27T14:39:51.565Z,82.53
2022-07-27T14:42:21.987Z,82.33
2022-07-27T14:44:48.643Z,81.90
2022-07-27T14:47:15.332Z,79.67
2022-07-27T14:49:42.076Z,80.70
2022-07-27T14:52:13.324Z,82.53
2022-07-27T14:54:43.668Z,83.10
2022-07-27T14:57:10.873Z,80.67
2022-07-27T14:59:37.757Z,81.23
2022-07-27T15:02:04.850Z,87.23
2022-07-27T15:04:32.035Z,83.80
2022-07-27T15:07:00.751Z,85.30
2022-07-27T15:09:30.252Z,82.20
2022-07-27T15:11:57.844Z,80.30
2022-07-27T15:14:24.736Z,81.47
2022-07-27T15:16:52.315Z,81.00
2022-07-27T15:19:19.006Z,80.80
2022-07-27T15:21:47.106Z,82.93
2022-07-27T15:24:14.091Z,85.60
2022-07-27T15:26:40.828Z,82.00
2022-07-27T15:29:10.028Z,80.10
2022-07-27T15:31:43.234Z,84.57
2022-07-27T15:34:10.496Z,82.70
2022-07-27T15:36:43.657Z,84.30
2022-07-27T15:39:13.581Z,83.10
2022-07-27T15:41:40.947Z,82.07
2022-07-27T15:44:07.916Z,80.77
2022-07-27T15:46:34.776Z,83.97
2022-07-27T15:49:01.810Z,81.67
2022-07-27T15:51:28.586Z,80.27
2022-07-27T15:53:56.922Z,84.30
2022-07-27T15:56:24.271Z,84.53
2022-07-27T15:58:50.949Z,82.57
2022-07-27T16:01:21.177Z,82.47
2022-07-27T16:03:48.991Z,85.80
2022-07-27T16:06:16.344Z,86.20
2022-07-27T16:08:46.238Z,84.07
2022-07-27T16:11:12.918Z,82.30
2022-07-27T16:13:39.662Z,83.60
2022-07-27T16:16:25.105Z,84.50
2022-07-27T16:18:53.462Z,84.47
2022-07-27T16:21:24.942Z,84.07
2022-07-27T16:23:53.608Z,86.17
2022-07-27T16:26:21.271Z,87.23
2022-07-27T16:28:49.601Z,84.17
2022-07-27T16:31:19.784Z,88.03
2022-07-27T16:33:49.640Z,85.80
2022-07-27T16:36:23.064Z,83.47
2022-07-27T16:38:51.791Z,84.70
2022-07-27T16:41:20.368Z,86.53
2022-07-27T16:43:47.637Z,86.10
2022-07-27T16:46:14.466Z,86.50
2022-07-27T16:48:42.352Z,84.87
2022-07-27T16:51:13.938Z,87.23
2022-07-27T16:53:42.768Z,83.10
2022-07-27T16:56:10.133Z,84.67
2022-07-27T16:58:38.036Z,93.13
2022-07-27T17:01:05.198Z,84.97
2022-07-27T17:03:31.959Z,85.17
2022-07-27T17:06:02.197Z,85.30
2022-07-27T17:08:31.830Z,85.50
2022-07-27T17:11:00.446Z,84.90
2022-07-27T17:13:33.876Z,86.70
2022-07-27T17:16:05.871Z,84.53
2022-07-27T17:18:39.380Z,86.80
2022-07-27T17:21:07.447Z,85.27
2022-07-27T17:23:38.011Z,84.90
2022-07-27T17:26:07.207Z,84.97
2022-07-27T17:28:36.726Z,85.67
2022-07-27T17:31:05.584Z,87.80
2022-07-27T17:33:32.976Z,85.30
2022-07-27T17:36:00.061Z,85.80
2022-07-27T17:38:27.440Z,85.37
2022-07-27T17:40:54.170Z,85.80
2022-07-27T17:43:20.871Z,85.30
2022-07-27T17:45:47.692Z,88.33
2022-07-27T17:48:14.468Z,86.57
2022-07-27T17:50:41.146Z,85.30
2022-07-27T17:53:07.859Z,85.90
2022-07-27T17:55:36.430Z,85.50
2022-07-27T17:58:03.432Z,85.77
2022-07-27T18:00:30.620Z,88.17
2022-07-27T18:02:57.396Z,87.37
2022-07-27T18:05:24.206Z,86.90
2022-07-27T18:07:52.058Z,90.03
2022-07-27T18:10:18.861Z,85.97
2022-07-27T18:12:45.543Z,87.13
2022-07-27T18:15:31.004Z,87.07
2022-07-27T18:17:57.718Z,85.60
2022-07-27T18:20:24.461Z,91.70
2022-07-27T18:22:51.154Z,85.97
2022-07-27T18:25:17.837Z,88.93
2022-07-27T18:27:49.946Z,86.50
2022-07-27T18:30:17.732Z,87.73
2022-07-27T18:32:48.124Z,87.13
2022-07-27T18:35:14.998Z,88.73
2022-07-27T18:37:41.830Z,85.60
2022-07-27T18:40:09.248Z,86.80
2022-07-27T18:42:37.199Z,86.17
2022-07-27T18:45:09.363Z,86.30
2022-07-27T18:47:36.602Z,87.90
2022-07-27T18:50:05.139Z,86.57
2022-07-27T18:52:32.162Z,88.87
2022-07-27T18:54:58.936Z,86.37
2022-07-27T18:57:25.748Z,87.47
2022-07-27T18:59:53.537Z,86.37
2022-07-27T19:02:20.754Z,89.07
2022-07-27T19:04:47.552Z,89.33
2022-07-27T19:07:14.951Z,93.13
2022-07-27T19:09:42.499Z,87.67
2022-07-27T19:12:09.982Z,86.90
2022-07-27T19:14:37.050Z,87.10
2022-07-27T19:17:03.894Z,87.00
2022-07-27T19:19:30.985Z,88.87
2022-07-27T19:21:58.068Z,89.17
2022-07-27T19:24:24.809Z,88.17
2022-07-27T19:26:51.554Z,91.20
2022-07-27T19:29:19.814Z,90.20
2022-07-27T19:31:46.969Z,87.23
2022-07-27T19:34:13.692Z,88.67
2022-07-27T19:36:40.415Z,89.23
2022-07-27T19:39:08.033Z,94.30
2022-07-27T19:41:35.495Z,88.70
2022-07-27T19:44:02.694Z,87.77
2022-07-27T19:46:29.608Z,88.00
2022-07-27T19:48:56.539Z,89.90
2022-07-27T19:51:23.627Z,88.97
2022-07-27T19:53:50.736Z,91.97
2022-07-27T19:56:17.478Z,92.70
2022-07-27T19:58:44.523Z,89.87
2022-07-27T20:01:12.526Z,90.87
2022-07-27T20:03:52.642Z,88.67
2022-07-27T20:06:22.483Z,88.97
2022-07-27T20:08:49.281Z,89.07
2022-07-27T20:11:15.968Z,94.20
2022-07-27T20:13:42.658Z,89.10
2022-07-27T20:16:09.342Z,88.17
2022-07-27T20:18:37.617Z,89.50
2022-07-27T20:21:04.674Z,88.70
2022-07-27T20:23:49.808Z,93.20
2022-07-27T20:26:16.582Z,88.93
2022-07-27T20:28:43.247Z,89.23
2022-07-27T20:31:10.089Z,89.30
2022-07-27T20:33:37.056Z,90.17
2022-07-27T20:36:04.946Z,90.50
2022-07-27T20:38:31.727Z,88.37
2022-07-27T20:40:59.344Z,90.67
2022-07-27T20:43:27.559Z,91.47
2022-07-27T20:45:54.949Z,88.63
2022-07-27T20:48:21.715Z,90.07
2022-07-27T20:50:48.394Z,89.20
2022-07-27T20:53:15.095Z,90.73
2022-07-27T20:55:42.757Z,92.00
2022-07-27T20:58:09.638Z,89.47
2022-07-27T21:00:37.342Z,88.90
2022-07-27T21:03:04.289Z,89.07
2022-07-27T21:05:31.033Z,92.03
2022-07-27T21:07:57.985Z,88.73
2022-07-27T21:10:24.867Z,91.25
2022-07-27T21:12:51.763Z,90.23
2022-07-27T21:15:18.524Z,92.00
2022-07-27T21:17:45.251Z,89.50
2022-07-27T21:20:13.536Z,90.20
2022-07-27T21:22:40.868Z,89.27
2022-07-27T21:25:07.905Z,91.07
2022-07-27T21:27:34.701Z,90.50
2022-07-27T21:30:01.415Z,89.32
2022-07-27T21:32:28.963Z,89.38
2022-07-27T21:34:55.656Z,89.57
2022-07-27T21:37:22.343Z,88.97
2022-07-27T21:39:48.989Z,93.73
2022-07-27T21:42:15.786Z,89.50
2022-07-27T21:44:42.462Z,90.80
2022-07-27T21:47:13.811Z,89.97
2022-07-27T21:49:41.572Z,90.90
2022-07-27T21:52:08.478Z,90.13
2022-07-27T21:54:35.149Z,89.67
2022-07-27T21:57:01.890Z,89.60
2022-07-27T21:59:28.537Z,89.47
2022-07-27T22:01:55.858Z,94.63
2022-07-27T22:04:22.712Z,89.80
2022-07-27T22:06:49.411Z,92.20
2022-07-27T22:09:16.175Z,94.72
2022-07-27T22:11:42.928Z,90.43
2022-07-27T22:14:09.686Z,90.90
2022-07-27T22:16:36.379Z,90.50
2022-07-27T22:19:03.217Z,90.73
2022-07-27T22:21:30.348Z,90.43
2022-07-27T22:23:57.158Z,91.45
2022-07-27T22:26:23.847Z,92.68
2022-07-27T22:28:50.520Z,91.03
2022-07-27T22:31:22.256Z,92.60
2022-07-27T22:33:49.732Z,91.60
2022-07-27T22:36:16.426Z,90.40
2022-07-27T22:38:43.098Z,92.07
2022-07-27T22:41:09.819Z,91.38
2022-07-27T22:43:36.643Z,92.88
2022-07-27T22:46:04.734Z,90.90
2022-07-27T22:48:31.743Z,90.82
2022-07-27T22:50:58.683Z,93.97
2022-07-27T22:53:25.464Z,90.47
2022-07-27T22:55:52.193Z,91.57
2022-07-27T22:58:18.870Z,90.97
2022-07-27T23:00:45.585Z,91.28
2022-07-27T23:03:12.342Z,92.03
2022-07-27T23:05:39.101Z,91.38
2022-07-27T23:08:06.113Z,92.50
2022-07-27T23:10:48.228Z,91.30
2022-07-27T23:13:16.448Z,90.13
2022-07-27T23:15:44.168Z,91.32
2022-07-27T23:18:11.935Z,90.95
2022-07-27T23:20:39.882Z,90.45
2022-07-27T23:23:15.555Z,93.97
2022-07-27T23:25:44.441Z,92.70
2022-07-27T23:28:11.430Z,93.70
2022-07-27T23:30:38.210Z,92.88
2022-07-27T23:33:05.091Z,91.85
2022-07-27T23:35:32.262Z,90.13
2022-07-27T23:38:00.026Z,90.45
2022-07-27T23:40:27.361Z,95.72
2022-07-27T23:42:54.215Z,91.32
2022-07-27T23:45:20.939Z,90.35
2022-07-27T23:47:47.598Z,92.40
2022-07-27T23:50:14.476Z,91.80
2022-07-27T23:52:41.198Z,90.88
2022-07-27T23:55:08.095Z,92.97
2022-07-27T23:57:35.283Z,91.35
